createdAt,value
2019-02-11T00:00:02.999Z,6.11
2019-02-11T00:01:02.994Z,6.16
2019-02-11T00:02:02.976Z,6.12
2019-02-11T00:03:02.970Z,6.11
2019-02-11T00:04:02.962Z,6.18
2019-02-11T00:05:02.950Z,6.11
2019-02-11T00:06:02.939Z,6.09
2019-02-11T00:07:02.925Z,6.09
2019-02-11T00:08:02.919Z,6.06
2019-02-11T00:09:02.912Z,6.00
2019-02-11T00:10:02.894Z,6.18
2019-02-11T00:11:02.886Z,6.19
2019-02-11T00:12:02.877Z,6.16
2019-02-11T00:13:10.176Z,6.18
2019-02-11T00:14:02.856Z,6.15
2019-02-11T00:15:02.847Z,6.12
2019-02-11T00:16:02.832Z,6.19
2019-02-11T00:17:02.822Z,6.16
2019-02-11T00:18:02.815Z,6.16
2019-02-11T00:19:02.808Z,6.18
2019-02-11T00:20:02.792Z,6.21
2019-02-11T00:21:02.783Z,6.18
2019-02-11T00:22:02.778Z,6.15
2019-02-11T00:23:02.764Z,6.13
2019-02-11T00:24:02.746Z,6.11
2019-02-11T00:25:02.744Z,6.12
2019-02-11T00:26:02.736Z,6.12
2019-02-11T00:27:02.723Z,6.06
2019-02-11T00:28:02.713Z,6.09
2019-02-11T00:29:02.702Z,6.09
2019-02-11T00:30:02.688Z,6.08
2019-02-11T00:31:02.679Z,6.06
2019-02-11T00:32:02.667Z,6.06
2019-02-11T00:33:02.654Z,6.11
2019-02-11T00:34:02.650Z,6.06
2019-02-11T00:35:02.637Z,6.11
2019-02-11T00:36:02.630Z,6.05
2019-02-11T00:37:02.622Z,6.15
2019-02-11T00:38:02.605Z,6.03
2019-02-11T00:39:02.595Z,6.06
2019-02-11T00:40:02.589Z,6.08
2019-02-11T00:41:02.578Z,6.03
2019-02-11T00:42:02.565Z,6.06
2019-02-11T00:43:02.558Z,6.08
2019-02-11T00:44:02.547Z,6.06
2019-02-11T00:45:02.534Z,6.11
2019-02-11T00:46:02.530Z,6.13
2019-02-11T00:47:02.514Z,6.09
2019-02-11T00:48:02.506Z,6.09
2019-02-11T00:49:02.495Z,6.05
2019-02-11T00:50:02.489Z,6.02
2019-02-11T00:51:02.468Z,5.94
2019-02-11T00:52:02.460Z,5.94
2019-02-11T00:53:02.450Z,6.02
2019-02-11T00:54:02.438Z,6.05
2019-02-11T00:55:02.436Z,6.03
2019-02-11T00:56:02.422Z,6.08
2019-02-11T00:57:02.411Z,6.09
2019-02-11T00:58:02.401Z,6.06
2019-02-11T00:59:02.391Z,6.06
2019-02-11T01:00:02.385Z,6.18
2019-02-11T01:01:02.366Z,6.09
2019-02-11T01:02:02.357Z,6.06
2019-02-11T01:03:02.345Z,6.06
2019-02-11T01:04:02.337Z,6.03
2019-02-11T01:05:02.327Z,6.00
2019-02-11T01:06:02.330Z,5.98
2019-02-11T01:07:02.310Z,6.09
2019-02-11T01:08:02.298Z,6.00
2019-02-11T01:09:02.293Z,6.11
2019-02-11T01:10:02.273Z,6.05
2019-02-11T01:11:02.267Z,6.00
2019-02-11T01:12:02.258Z,6.11
2019-02-11T01:13:02.250Z,6.03
2019-02-11T01:14:02.233Z,6.05
2019-02-11T01:15:02.222Z,6.11
2019-02-11T01:16:02.213Z,6.06
2019-02-11T01:17:02.206Z,6.08
2019-02-11T01:18:02.201Z,6.06
2019-02-11T01:19:02.185Z,6.05
2019-02-11T01:20:02.175Z,6.02
2019-02-11T01:21:02.164Z,6.02
2019-02-11T01:22:02.150Z,6.00
2019-02-11T01:23:02.140Z,5.85
2019-02-11T01:24:02.128Z,5.98
2019-02-11T01:25:02.122Z,5.98
2019-02-11T01:26:02.111Z,6.08
2019-02-11T01:27:02.106Z,5.97
2019-02-11T01:28:02.087Z,5.98
2019-02-11T01:29:02.089Z,6.03
2019-02-11T01:30:02.071Z,5.97
2019-02-11T01:31:02.062Z,6.02
2019-02-11T01:32:02.053Z,6.02
2019-02-11T01:33:02.054Z,6.03
2019-02-11T01:34:02.028Z,5.93
2019-02-11T01:35:02.016Z,5.97
2019-02-11T01:36:02.005Z,6.02
2019-02-11T01:37:01.996Z,5.85
2019-02-11T01:38:01.987Z,5.98
2019-02-11T01:39:01.977Z,5.98
2019-02-11T01:40:01.975Z,5.93
2019-02-11T01:41:01.957Z,5.93
2019-02-11T01:42:01.945Z,5.91
2019-02-11T01:43:01.935Z,5.94
2019-02-11T01:44:01.923Z,5.95
2019-02-11T01:45:01.916Z,5.88
2019-02-11T01:46:01.900Z,5.90
2019-02-11T01:47:01.895Z,5.95
2019-02-11T01:48:01.883Z,5.94
2019-02-11T01:49:01.869Z,5.90
2019-02-11T01:50:01.864Z,5.95
2019-02-11T01:51:01.853Z,5.87
2019-02-11T01:52:01.842Z,5.90
2019-02-11T01:53:01.831Z,5.95
2019-02-11T01:54:01.819Z,5.87
2019-02-11T01:55:01.809Z,5.88
2019-02-11T01:56:01.804Z,5.85
2019-02-11T01:57:01.790Z,5.72
2019-02-11T01:58:01.786Z,5.79
2019-02-11T01:59:01.771Z,5.76
2019-02-11T02:00:01.756Z,5.76
2019-02-11T02:01:01.743Z,5.77
2019-02-11T02:02:01.741Z,5.70
2019-02-11T02:03:01.727Z,5.75
2019-02-11T02:04:01.734Z,5.73
2019-02-11T02:05:01.713Z,5.73
2019-02-11T02:06:01.694Z,5.72
2019-02-11T02:07:01.678Z,5.65
2019-02-11T02:08:01.671Z,5.73
2019-02-11T02:09:01.670Z,5.73
2019-02-11T02:10:01.657Z,5.67
2019-02-11T02:11:01.666Z,5.72
2019-02-11T02:12:01.631Z,5.66
2019-02-11T02:13:01.623Z,5.69
2019-02-11T02:14:01.622Z,5.69
2019-02-11T02:15:01.599Z,5.73
2019-02-11T02:16:01.593Z,5.73
2019-02-11T02:17:01.583Z,5.59
2019-02-11T02:18:01.567Z,5.72
2019-02-11T02:19:01.560Z,5.75
2019-02-11T02:20:01.548Z,5.76
2019-02-11T02:21:01.537Z,5.73
2019-02-11T02:22:01.528Z,5.76
2019-02-11T02:23:01.517Z,5.75
2019-02-11T02:24:01.510Z,5.77
2019-02-11T02:25:01.497Z,5.76
2019-02-11T02:26:01.484Z,5.73
2019-02-11T02:27:01.478Z,5.79
2019-02-11T02:28:01.460Z,5.82
2019-02-11T02:29:01.457Z,5.90
2019-02-11T02:30:01.453Z,5.85
2019-02-11T02:31:01.438Z,5.82
2019-02-11T02:32:01.421Z,5.87
2019-02-11T02:33:01.421Z,5.91
2019-02-11T02:34:01.396Z,5.84
2019-02-11T02:35:01.392Z,5.93
2019-02-11T02:36:01.382Z,5.94
2019-02-11T02:37:01.372Z,5.94
2019-02-11T02:38:01.368Z,5.88
2019-02-11T02:39:01.351Z,5.97
2019-02-11T02:40:01.336Z,5.95
2019-02-11T02:41:01.319Z,5.88
2019-02-11T02:42:01.320Z,5.97
2019-02-11T02:43:01.306Z,5.90
2019-02-11T02:44:01.299Z,5.91
2019-02-11T02:45:01.295Z,5.93
2019-02-11T02:46:01.273Z,5.93
2019-02-11T02:47:01.310Z,5.90
2019-02-11T02:48:01.261Z,5.95
2019-02-11T02:49:01.246Z,5.94
2019-02-11T02:50:01.234Z,5.97
2019-02-11T02:51:01.230Z,5.88
2019-02-11T02:52:01.210Z,5.88
2019-02-11T02:53:01.203Z,5.88
2019-02-11T02:54:01.192Z,5.95
2019-02-11T02:55:01.178Z,5.97
2019-02-11T02:56:01.174Z,5.95
2019-02-11T02:57:01.162Z,5.85
2019-02-11T02:58:01.149Z,5.95
2019-02-11T02:59:01.138Z,5.97
2019-02-11T03:00:01.127Z,5.94
2019-02-11T03:01:01.123Z,5.97
2019-02-11T03:02:01.123Z,5.95
2019-02-11T03:03:01.099Z,5.95
2019-02-11T03:04:01.088Z,5.85
2019-02-11T03:05:01.076Z,5.88
2019-02-11T03:06:01.068Z,5.88
2019-02-11T03:07:01.059Z,6.00
2019-02-11T03:08:01.047Z,5.91
2019-02-11T03:09:01.039Z,5.98
2019-02-11T03:10:01.031Z,6.05
2019-02-11T03:11:01.012Z,6.02
2019-02-11T03:12:01.005Z,6.03
2019-02-11T03:13:00.991Z,6.08
2019-02-11T03:14:05.697Z,6.08
2019-02-11T03:15:00.973Z,6.03
2019-02-11T03:16:00.975Z,6.05
2019-02-11T03:17:00.954Z,6.06
2019-02-11T03:18:00.939Z,6.05
2019-02-11T03:19:00.929Z,6.06
2019-02-11T03:20:00.925Z,6.11
2019-02-11T03:21:00.914Z,6.11
2019-02-11T03:22:00.899Z,6.12
2019-02-11T03:23:00.887Z,6.18
2019-02-11T03:24:00.876Z,6.15
2019-02-11T03:25:00.871Z,6.15
2019-02-11T03:26:00.864Z,6.15
2019-02-11T03:27:00.849Z,6.12
2019-02-11T03:28:00.845Z,6.18
2019-02-11T03:29:00.843Z,6.30
2019-02-11T03:30:00.816Z,6.28
2019-02-11T03:31:00.804Z,6.19
2019-02-11T03:32:00.798Z,6.28
2019-02-11T03:33:00.817Z,6.27
2019-02-11T03:34:00.775Z,6.28
2019-02-11T03:35:00.788Z,6.27
2019-02-11T03:36:00.751Z,6.21
2019-02-11T03:37:00.739Z,6.30
2019-02-11T03:38:00.740Z,6.19
2019-02-11T03:39:00.727Z,6.27
2019-02-11T03:40:00.714Z,6.28
2019-02-11T03:41:00.707Z,6.21
2019-02-11T03:42:00.691Z,6.24
2019-02-11T03:43:00.679Z,6.24
2019-02-11T03:44:00.669Z,6.24
2019-02-11T03:45:00.660Z,6.21
2019-02-11T03:46:00.653Z,6.24
2019-02-11T03:47:00.641Z,6.21
2019-02-11T03:48:00.631Z,6.30
2019-02-11T03:49:00.621Z,6.27
2019-02-11T03:50:00.610Z,6.21
2019-02-11T03:51:00.595Z,6.16
2019-02-11T03:52:00.589Z,6.19
2019-02-11T03:53:00.580Z,6.27
2019-02-11T03:54:00.565Z,6.24
2019-02-11T03:55:00.551Z,6.27
2019-02-11T03:56:00.550Z,6.25
2019-02-11T03:57:00.543Z,6.25
2019-02-11T03:58:00.529Z,6.19
2019-02-11T03:59:00.517Z,6.12
2019-02-11T04:00:00.508Z,6.18
2019-02-11T04:01:00.494Z,6.16
2019-02-11T04:02:00.487Z,6.19
2019-02-11T04:03:00.477Z,6.16
2019-02-11T04:04:00.473Z,6.24
2019-02-11T04:05:00.453Z,6.21
2019-02-11T04:06:00.444Z,6.24
2019-02-11T04:07:00.438Z,6.27
2019-02-11T04:08:00.424Z,6.32
2019-02-11T04:09:00.413Z,6.42
2019-02-11T04:10:00.404Z,6.31
2019-02-11T04:11:00.392Z,6.34
2019-02-11T04:12:00.382Z,6.34
2019-02-11T04:13:00.376Z,6.35
2019-02-11T04:14:00.358Z,6.35
2019-02-11T04:15:00.349Z,6.37
2019-02-11T04:16:00.338Z,6.35
2019-02-11T04:17:00.329Z,6.37
2019-02-11T04:18:00.321Z,6.37
2019-02-11T04:19:00.310Z,6.40
2019-02-11T04:20:00.299Z,6.38
2019-02-11T04:21:00.287Z,6.40
2019-02-11T04:22:00.275Z,6.42
2019-02-11T04:23:00.266Z,6.43
2019-02-11T04:24:00.259Z,6.52
2019-02-11T04:25:00.272Z,6.37
2019-02-11T04:26:00.235Z,6.37
2019-02-11T04:27:00.226Z,6.46
2019-02-11T04:28:00.218Z,6.53
2019-02-11T04:29:00.209Z,6.47
2019-02-11T04:30:00.210Z,6.40
2019-02-11T04:31:00.189Z,6.46
2019-02-11T04:32:00.179Z,6.46
2019-02-11T04:33:00.171Z,6.42
2019-02-11T04:34:00.154Z,6.42
2019-02-11T04:35:00.326Z,6.47
2019-02-11T04:36:00.143Z,6.42
2019-02-11T04:37:00.127Z,6.45
2019-02-11T04:38:00.120Z,6.52
2019-02-11T04:39:00.103Z,6.40
2019-02-11T04:40:00.141Z,6.45
2019-02-11T04:41:00.084Z,6.56
2019-02-11T04:42:00.073Z,6.53
2019-02-11T04:43:00.067Z,6.49
2019-02-11T04:44:00.057Z,6.60
2019-02-11T04:45:00.049Z,6.53
2019-02-11T04:46:00.036Z,6.60
2019-02-11T04:47:00.021Z,6.56
2019-02-11T04:48:00.014Z,6.55
2019-02-11T04:49:00.003Z,6.57
2019-02-11T04:49:59.997Z,6.61
2019-02-11T04:50:59.984Z,6.56
2019-02-11T04:51:59.980Z,6.57
2019-02-11T04:52:59.968Z,6.55
2019-02-11T04:53:59.951Z,6.57
2019-02-11T04:54:59.942Z,6.64
2019-02-11T04:55:59.935Z,6.56
2019-02-11T04:56:59.930Z,6.65
2019-02-11T04:57:59.914Z,6.60
2019-02-11T04:58:59.911Z,6.60
2019-02-11T04:59:59.903Z,6.67
2019-02-11T05:00:59.878Z,6.56
2019-02-11T05:01:59.874Z,6.64
2019-02-11T05:02:59.862Z,6.56
2019-02-11T05:03:59.859Z,6.63
2019-02-11T05:04:59.844Z,6.68
2019-02-11T05:05:59.831Z,6.67
2019-02-11T05:06:59.821Z,6.71
2019-02-11T05:07:59.821Z,6.68
2019-02-11T05:08:59.803Z,6.68
2019-02-11T05:09:59.793Z,6.63
2019-02-11T05:10:59.783Z,6.55
2019-02-11T05:11:59.776Z,6.65
2019-02-11T05:12:59.770Z,6.65
2019-02-11T05:13:59.753Z,6.63
2019-02-11T05:14:59.749Z,6.64
2019-02-11T05:15:59.737Z,6.70
2019-02-11T05:16:59.725Z,6.61
2019-02-11T05:17:59.711Z,6.67
2019-02-11T05:18:59.707Z,6.63
2019-02-11T05:19:59.690Z,6.67
2019-02-11T05:20:59.681Z,6.64
2019-02-11T05:21:59.675Z,6.65
2019-02-11T05:22:59.667Z,6.73
2019-02-11T05:23:59.655Z,6.68
2019-02-11T05:24:59.650Z,6.74
2019-02-11T05:25:59.631Z,6.74
2019-02-11T05:26:59.620Z,6.74
2019-02-11T05:27:59.626Z,6.63
2019-02-11T05:28:59.607Z,6.73
2019-02-11T05:29:59.593Z,6.79
2019-02-11T05:30:59.580Z,6.65
2019-02-11T05:31:59.571Z,6.73
2019-02-11T05:32:59.571Z,6.74
2019-02-11T05:33:59.554Z,6.71
2019-02-11T05:34:59.544Z,6.64
2019-02-11T05:35:59.551Z,6.74
2019-02-11T05:36:59.810Z,6.75
2019-02-11T05:37:59.506Z,6.75
2019-02-11T05:38:59.500Z,6.64
2019-02-11T05:39:59.493Z,6.68
2019-02-11T05:40:59.483Z,6.65
2019-02-11T05:41:59.501Z,6.68
2019-02-11T05:42:59.462Z,6.70
2019-02-11T05:43:59.457Z,6.67
2019-02-11T05:44:59.439Z,6.67
2019-02-11T05:45:59.439Z,6.67
2019-02-11T05:46:59.430Z,6.67
2019-02-11T05:47:59.416Z,6.65
2019-02-11T05:48:59.403Z,6.65
2019-02-11T05:49:59.387Z,6.68
2019-02-11T05:50:59.379Z,6.64
2019-02-11T05:51:59.374Z,6.63
2019-02-11T05:52:59.357Z,6.65
2019-02-11T05:53:59.346Z,6.52
2019-02-11T05:54:59.347Z,6.60
2019-02-11T05:55:59.328Z,6.63
2019-02-11T05:56:59.322Z,6.55
2019-02-11T05:57:59.304Z,6.65
2019-02-11T05:58:59.300Z,6.60
2019-02-11T05:59:59.293Z,6.65
2019-02-11T06:00:59.276Z,6.67
2019-02-11T06:01:59.273Z,6.75
2019-02-11T06:02:59.261Z,6.68
2019-02-11T06:03:59.248Z,6.61
2019-02-11T06:04:59.249Z,6.64
2019-02-11T06:05:59.228Z,6.75
2019-02-11T06:06:59.220Z,6.82
2019-02-11T06:07:59.209Z,6.83
2019-02-11T06:08:59.206Z,6.93
2019-02-11T06:09:59.187Z,7.01
2019-02-11T06:10:59.186Z,7.16
2019-02-11T06:11:59.168Z,7.22
2019-02-11T06:12:59.156Z,7.31
2019-02-11T06:13:59.571Z,7.37
2019-02-11T06:15:04.217Z,7.40
2019-02-11T06:15:59.130Z,7.50
2019-02-11T06:16:59.124Z,7.44
2019-02-11T06:17:59.109Z,7.47
2019-02-11T06:18:59.096Z,7.47
2019-02-11T06:19:59.089Z,7.50
2019-02-11T06:20:59.080Z,7.52
2019-02-11T06:21:59.065Z,7.54
2019-02-11T06:22:59.051Z,7.43
2019-02-11T06:23:59.052Z,7.44
2019-02-11T06:24:59.038Z,7.73
2019-02-11T06:25:59.037Z,7.73
2019-02-11T06:26:59.020Z,7.71
2019-02-11T06:27:59.006Z,7.66
2019-02-11T06:28:59.002Z,7.71
2019-02-11T06:29:58.991Z,7.62
2019-02-11T06:30:58.979Z,7.68
2019-02-11T06:31:58.970Z,7.68
2019-02-11T06:32:58.963Z,7.69
2019-02-11T06:33:58.948Z,7.68
2019-02-11T06:34:58.946Z,7.74
2019-02-11T06:35:58.932Z,7.71
2019-02-11T06:36:58.924Z,7.77
2019-02-11T06:37:58.905Z,7.81
2019-02-11T06:38:58.905Z,7.69
2019-02-11T06:39:58.893Z,7.91
2019-02-11T06:40:58.884Z,7.91
2019-02-11T06:41:58.869Z,7.78
2019-02-11T06:42:58.860Z,7.80
2019-02-11T06:43:58.850Z,7.83
2019-02-11T06:44:58.839Z,7.87
2019-02-11T06:45:58.833Z,7.83
2019-02-11T06:46:58.822Z,7.91
2019-02-11T06:47:58.810Z,7.81
2019-02-11T06:48:58.802Z,7.92
2019-02-11T06:49:58.793Z,7.80
2019-02-11T06:50:58.782Z,7.87
2019-02-11T06:51:58.777Z,7.83
2019-02-11T06:52:58.766Z,7.86
2019-02-11T06:53:58.748Z,7.96
2019-02-11T06:54:58.744Z,7.91
2019-02-11T06:55:58.733Z,7.80
2019-02-11T06:56:58.714Z,7.74
2019-02-11T06:57:58.714Z,7.74
2019-02-11T06:58:58.700Z,7.68
2019-02-11T06:59:58.695Z,7.58
2019-02-11T07:00:58.687Z,7.60
2019-02-11T07:01:58.674Z,7.49
2019-02-11T07:02:58.665Z,7.42
2019-02-11T07:03:58.657Z,7.40
2019-02-11T07:04:58.648Z,7.33
2019-02-11T07:05:58.635Z,7.36
2019-02-11T07:06:58.623Z,7.29
2019-02-11T07:07:58.618Z,7.36
2019-02-11T07:08:58.606Z,7.21
2019-02-11T07:09:58.596Z,7.19
2019-02-11T07:10:58.587Z,7.16
2019-02-11T07:11:58.579Z,7.16
2019-02-11T07:12:58.582Z,7.22
2019-02-11T07:13:58.551Z,7.22
2019-02-11T07:14:58.549Z,7.22
2019-02-11T07:15:58.541Z,7.13
2019-02-11T07:16:58.528Z,7.15
2019-02-11T07:17:58.516Z,7.16
2019-02-11T07:18:58.512Z,7.10
2019-02-11T07:19:58.499Z,7.13
2019-02-11T07:20:58.485Z,7.15
2019-02-11T07:21:58.480Z,7.07
2019-02-11T07:22:58.470Z,7.10
2019-02-11T07:23:58.461Z,7.04
2019-02-11T07:24:58.452Z,7.08
2019-02-11T07:25:58.439Z,7.06
2019-02-11T07:26:58.428Z,6.99
2019-02-11T07:27:58.419Z,7.08
2019-02-11T07:28:58.415Z,7.01
2019-02-11T07:29:58.418Z,7.08
2019-02-11T07:30:58.391Z,7.00
2019-02-11T07:31:58.383Z,7.03
2019-02-11T07:32:58.374Z,7.03
2019-02-11T07:33:58.368Z,7.07
2019-02-11T07:34:58.360Z,7.07
2019-02-11T07:35:58.364Z,7.08
2019-02-11T07:36:58.336Z,7.15
2019-02-11T07:37:58.326Z,7.15
2019-02-11T07:38:58.315Z,7.18
2019-02-11T07:39:58.302Z,7.08
2019-02-11T07:40:58.295Z,7.13
2019-02-11T07:41:58.286Z,7.01
2019-02-11T07:42:58.275Z,7.01
2019-02-11T07:43:58.272Z,7.07
2019-02-11T07:44:58.256Z,7.06
2019-02-11T07:45:58.247Z,7.01
2019-02-11T07:46:58.235Z,7.03
2019-02-11T07:47:58.224Z,7.00
2019-02-11T07:48:58.211Z,7.04
2019-02-11T07:49:58.205Z,7.01
2019-02-11T07:50:58.206Z,7.08
2019-02-11T07:51:58.193Z,7.10
2019-02-11T07:52:58.175Z,7.11
2019-02-11T07:53:58.171Z,7.13
2019-02-11T07:54:58.158Z,7.13
2019-02-11T07:55:58.150Z,7.08
2019-02-11T07:56:58.146Z,7.22
2019-02-11T07:57:58.126Z,7.19
2019-02-11T07:58:58.130Z,7.18
2019-02-11T07:59:58.109Z,7.25
2019-02-11T08:00:58.097Z,7.28
2019-02-11T08:01:58.092Z,7.25
2019-02-11T08:02:58.113Z,7.33
2019-02-11T08:03:58.072Z,7.33
2019-02-11T08:04:58.060Z,7.33
2019-02-11T08:05:58.053Z,7.26
2019-02-11T08:06:58.039Z,7.33
2019-02-11T08:07:58.036Z,7.33
2019-02-11T08:08:58.021Z,7.29
2019-02-11T08:09:58.005Z,7.39
2019-02-11T08:10:58.000Z,7.39
2019-02-11T08:11:57.987Z,7.33
2019-02-11T08:12:57.979Z,7.33
2019-02-11T08:13:57.974Z,7.29
2019-02-11T08:14:57.961Z,7.39
2019-02-11T08:15:57.952Z,7.36
2019-02-11T08:16:57.953Z,7.40
2019-02-11T08:17:58.268Z,7.43
2019-02-11T08:18:57.927Z,7.37
2019-02-11T08:19:57.916Z,7.42
2019-02-11T08:20:57.912Z,7.33
2019-02-11T08:21:57.892Z,7.43
2019-02-11T08:22:57.884Z,7.40
2019-02-11T08:23:57.899Z,7.37
2019-02-11T08:24:57.866Z,7.44
2019-02-11T08:25:57.854Z,7.43
2019-02-11T08:26:57.844Z,7.46
2019-02-11T08:27:57.836Z,7.40
2019-02-11T08:28:57.829Z,7.42
2019-02-11T08:29:57.821Z,7.40
2019-02-11T08:30:57.809Z,7.39
2019-02-11T08:31:57.803Z,7.39
2019-02-11T08:32:57.793Z,7.46
2019-02-11T08:33:57.779Z,7.44
2019-02-11T08:34:57.775Z,7.42
2019-02-11T08:35:57.761Z,7.46
2019-02-11T08:36:57.751Z,7.46
2019-02-11T08:37:57.748Z,7.49
2019-02-11T08:38:57.740Z,7.44
2019-02-11T08:39:57.725Z,7.50
2019-02-11T08:40:57.713Z,7.54
2019-02-11T08:41:57.717Z,7.44
2019-02-11T08:42:57.698Z,7.47
2019-02-11T08:43:58.301Z,7.44
2019-02-11T08:44:57.680Z,7.47
2019-02-11T08:45:57.670Z,7.60
2019-02-11T08:46:57.658Z,7.52
2019-02-11T08:47:57.648Z,7.52
2019-02-11T08:48:57.641Z,7.58
2019-02-11T08:49:57.659Z,7.54
2019-02-11T08:50:57.623Z,7.43
2019-02-11T08:51:57.638Z,7.46
2019-02-11T08:52:57.605Z,7.39
2019-02-11T08:53:57.585Z,7.37
2019-02-11T08:54:57.585Z,7.43
2019-02-11T08:55:57.576Z,7.43
2019-02-11T08:56:57.565Z,7.39
2019-02-11T08:57:57.559Z,7.34
2019-02-11T08:58:57.547Z,7.49
2019-02-11T08:59:57.536Z,7.46
2019-02-11T09:00:57.576Z,7.52
2019-02-11T09:01:57.528Z,7.61
2019-02-11T09:02:57.505Z,7.57
2019-02-11T09:03:57.504Z,7.57
2019-02-11T09:04:57.491Z,7.66
2019-02-11T09:05:57.478Z,7.68
2019-02-11T09:06:57.472Z,7.76
2019-02-11T09:07:57.461Z,7.84
2019-02-11T09:08:57.454Z,7.88
2019-02-11T09:09:57.442Z,7.81
2019-02-11T09:10:57.434Z,7.83
2019-02-11T09:11:57.425Z,7.86
2019-02-11T09:12:57.414Z,7.91
2019-02-11T09:13:57.414Z,7.87
2019-02-11T09:14:57.398Z,7.86
2019-02-11T09:15:57.393Z,7.86
2019-02-11T09:16:57.381Z,7.86
2019-02-11T09:17:57.366Z,7.87
2019-02-11T09:18:57.358Z,7.80
2019-02-11T09:19:57.351Z,7.80
2019-02-11T09:20:57.340Z,7.83
2019-02-11T09:21:57.335Z,7.95
2019-02-11T09:22:57.325Z,7.81
2019-02-11T09:23:57.315Z,7.81
2019-02-11T09:24:57.309Z,7.91
2019-02-11T09:25:57.299Z,7.80
2019-02-11T09:26:57.288Z,7.91
2019-02-11T09:27:57.279Z,7.94
2019-02-11T09:28:57.281Z,7.95
2019-02-11T09:29:57.252Z,7.80
2019-02-11T09:30:57.262Z,7.80
2019-02-11T09:31:57.244Z,7.80
2019-02-11T09:32:57.272Z,7.80
2019-02-11T09:33:57.225Z,7.81
2019-02-11T09:34:57.216Z,7.83
2019-02-11T09:35:57.209Z,7.87
2019-02-11T09:36:57.201Z,7.81
2019-02-11T09:37:57.186Z,7.80
2019-02-11T09:38:57.180Z,7.83
2019-02-11T09:39:57.180Z,7.81
2019-02-11T09:40:57.162Z,7.84
2019-02-11T09:41:57.172Z,7.80
2019-02-11T09:42:57.145Z,7.81
2019-02-11T09:43:57.130Z,7.81
2019-02-11T09:44:57.167Z,7.84
2019-02-11T09:46:03.796Z,7.84
2019-02-11T09:46:57.110Z,7.91
2019-02-11T09:47:57.106Z,7.83
2019-02-11T09:48:57.098Z,7.81
2019-02-11T09:49:57.078Z,7.92
2019-02-11T09:50:57.072Z,7.96
2019-02-11T09:51:57.066Z,7.94
2019-02-11T09:52:57.056Z,7.99
2019-02-11T09:53:57.054Z,7.99
2019-02-11T09:54:57.035Z,8.05
2019-02-11T09:55:57.033Z,8.13
2019-02-11T09:56:57.055Z,8.10
2019-02-11T09:57:57.017Z,8.09
2019-02-11T09:58:57.005Z,8.06
2019-02-11T09:59:56.994Z,8.05
2019-02-11T10:00:56.986Z,8.05
2019-02-11T10:01:56.972Z,7.99
2019-02-11T10:02:56.966Z,8.02
2019-02-11T10:03:56.961Z,8.13
2019-02-11T10:04:56.950Z,8.19
2019-02-11T10:05:56.943Z,8.23
2019-02-11T10:06:56.965Z,8.32
2019-02-11T10:07:56.923Z,8.29
2019-02-11T10:08:56.917Z,8.28
2019-02-11T10:09:56.909Z,8.39
2019-02-11T10:10:56.894Z,8.35
2019-02-11T10:11:56.883Z,8.29
2019-02-11T10:12:56.878Z,8.29
2019-02-11T10:13:56.876Z,8.24
2019-02-11T10:14:56.862Z,8.39
2019-02-11T10:15:56.856Z,8.23
2019-02-11T10:16:56.857Z,8.24
2019-02-11T10:17:56.838Z,8.24
2019-02-11T10:18:56.831Z,8.34
2019-02-11T10:19:56.837Z,8.32
2019-02-11T10:20:56.822Z,8.38
2019-02-11T10:21:56.804Z,8.42
2019-02-11T10:22:56.793Z,8.37
2019-02-11T10:23:56.791Z,8.32
2019-02-11T10:24:56.775Z,8.31
2019-02-11T10:25:56.770Z,8.46
2019-02-11T10:26:56.761Z,8.46
2019-02-11T10:27:56.752Z,8.56
2019-02-11T10:28:56.744Z,8.55
2019-02-11T10:29:56.734Z,8.50
2019-02-11T10:30:56.730Z,8.55
2019-02-11T10:31:56.726Z,8.60
2019-02-11T10:32:56.709Z,8.60
2019-02-11T10:33:56.696Z,8.68
2019-02-11T10:34:56.688Z,8.62
2019-02-11T10:35:56.680Z,8.75
2019-02-11T10:36:56.670Z,8.77
2019-02-11T10:37:56.668Z,8.78
2019-02-11T10:38:56.656Z,8.75
2019-02-11T10:39:56.647Z,8.86
2019-02-11T10:40:56.641Z,8.83
2019-02-11T10:41:56.627Z,8.78
2019-02-11T10:42:56.628Z,8.88
2019-02-11T10:43:56.612Z,8.85
2019-02-11T10:44:56.604Z,8.85
2019-02-11T10:45:56.598Z,8.88
2019-02-11T10:46:56.590Z,8.85
2019-02-11T10:47:56.578Z,8.81
2019-02-11T10:48:56.573Z,8.72
2019-02-11T10:49:56.568Z,8.71
2019-02-11T10:50:56.559Z,8.62
2019-02-11T10:51:56.551Z,8.59
2019-02-11T10:52:56.538Z,8.53
2019-02-11T10:53:56.550Z,8.53
2019-02-11T10:54:56.518Z,8.55
2019-02-11T10:55:56.515Z,8.53
2019-02-11T10:56:56.495Z,8.62
2019-02-11T10:57:56.494Z,8.65
2019-02-11T10:58:56.490Z,8.62
2019-02-11T10:59:56.477Z,8.55
2019-02-11T11:00:56.469Z,8.50
2019-02-11T11:01:56.455Z,8.55
2019-02-11T11:02:56.457Z,8.52
2019-02-11T11:03:56.449Z,8.55
2019-02-11T11:04:56.440Z,8.53
2019-02-11T11:05:56.428Z,8.52
2019-02-11T11:06:56.419Z,8.55
2019-02-11T11:07:56.404Z,8.52
2019-02-11T11:08:56.409Z,8.57
2019-02-11T11:09:56.390Z,8.71
2019-02-11T11:10:56.383Z,8.75
2019-02-11T11:11:56.377Z,8.83
2019-02-11T11:12:56.382Z,8.85
2019-02-11T11:13:56.355Z,8.80
2019-02-11T11:14:56.348Z,8.83
2019-02-11T11:15:56.353Z,8.99
2019-02-11T11:16:56.332Z,8.98
2019-02-11T11:17:56.331Z,9.01
2019-02-11T11:18:56.319Z,8.96
2019-02-11T11:19:56.318Z,8.98
2019-02-11T11:20:56.296Z,8.92
2019-02-11T11:21:56.293Z,8.98
2019-02-11T11:22:56.284Z,9.03
2019-02-11T11:23:56.277Z,9.06
2019-02-11T11:24:56.275Z,9.12
2019-02-11T11:25:56.256Z,9.30
2019-02-11T11:26:56.251Z,9.27
2019-02-11T11:27:56.241Z,9.29
2019-02-11T11:28:56.232Z,9.41
2019-02-11T11:29:56.228Z,9.44
2019-02-11T11:30:56.231Z,9.44
2019-02-11T11:31:56.222Z,9.48
2019-02-11T11:32:56.202Z,9.51
2019-02-11T11:33:56.190Z,9.55
2019-02-11T11:34:56.190Z,9.52
2019-02-11T11:35:56.180Z,9.50
2019-02-11T11:36:56.176Z,9.55
2019-02-11T11:37:56.163Z,9.52
2019-02-11T11:38:56.156Z,9.59
2019-02-11T11:39:56.158Z,9.51
2019-02-11T11:40:56.143Z,9.52
2019-02-11T11:41:56.135Z,9.54
2019-02-11T11:42:56.123Z,9.52
2019-02-11T11:43:56.124Z,9.54
2019-02-11T11:44:56.118Z,9.50
2019-02-11T11:45:56.103Z,9.51
2019-02-11T11:46:56.101Z,9.36
2019-02-11T11:47:56.113Z,9.45
2019-02-11T11:48:56.078Z,9.37
2019-02-11T11:49:56.070Z,9.29
2019-02-11T11:50:56.066Z,9.37
2019-02-11T11:51:56.054Z,9.34
2019-02-11T11:52:56.051Z,9.44
2019-02-11T11:53:56.044Z,9.37
2019-02-11T11:54:56.042Z,9.40
2019-02-11T11:55:56.037Z,9.42
2019-02-11T11:56:59.239Z,9.40
2019-02-11T11:57:56.009Z,9.48
2019-02-11T11:58:56.023Z,9.45
2019-02-11T11:59:56.014Z,9.48
2019-02-11T12:00:56.167Z,9.48
2019-02-11T12:01:56.008Z,9.57
2019-02-11T12:03:02.496Z,9.51
2019-02-11T12:03:55.984Z,9.50
2019-02-11T12:04:55.967Z,9.47
2019-02-11T12:05:55.952Z,9.42
2019-02-11T12:06:55.954Z,9.37
2019-02-11T12:07:55.933Z,9.40
2019-02-11T12:08:58.935Z,9.41
2019-02-11T12:09:55.919Z,9.45
2019-02-11T12:10:55.921Z,9.34
2019-02-11T12:11:55.913Z,9.41
2019-02-11T12:12:55.902Z,9.41
2019-02-11T12:13:55.907Z,9.44
2019-02-11T12:14:55.889Z,9.51
2019-02-11T12:15:55.896Z,9.52
2019-02-11T12:17:01.721Z,9.51
2019-02-11T12:17:55.883Z,9.51
2019-02-11T12:18:55.858Z,9.60
2019-02-11T12:19:55.845Z,9.55
2019-02-11T12:20:56.022Z,9.52
2019-02-11T12:21:55.864Z,9.63
2019-02-11T12:22:55.823Z,9.63
2019-02-11T12:23:55.830Z,9.66
2019-02-11T12:24:55.818Z,9.63
2019-02-11T12:25:55.820Z,9.60
2019-02-11T12:26:55.847Z,9.63
2019-02-11T12:27:55.808Z,9.54
2019-02-11T12:28:55.802Z,9.54
2019-02-11T12:29:55.787Z,9.50
2019-02-11T12:30:55.776Z,9.51
2019-02-11T12:31:55.758Z,9.44
2019-02-11T12:32:56.427Z,9.45
2019-02-11T12:33:55.907Z,9.44
2019-02-11T12:34:55.736Z,9.50
2019-02-11T12:35:55.727Z,9.48
2019-02-11T12:36:55.731Z,9.51
2019-02-11T12:37:55.743Z,9.50
2019-02-11T12:38:55.707Z,9.51
2019-02-11T12:39:55.701Z,9.57
2019-02-11T12:40:55.697Z,9.62
2019-02-11T12:41:55.709Z,9.52
2019-02-11T12:42:55.700Z,9.50
2019-02-11T12:43:55.665Z,9.51
2019-02-11T12:44:55.662Z,9.47
2019-02-11T12:45:55.659Z,9.34
2019-02-11T12:47:12.761Z,9.34
2019-02-11T12:47:55.641Z,9.32
2019-02-11T12:48:55.634Z,9.29
2019-02-11T12:49:55.638Z,9.37
2019-02-11T12:50:55.621Z,9.26
2019-02-11T12:51:55.606Z,9.26
2019-02-11T12:52:55.607Z,9.22
2019-02-11T12:53:55.594Z,9.29
2019-02-11T12:54:55.587Z,9.23
2019-02-11T12:55:55.576Z,9.16
2019-02-11T12:56:55.573Z,9.16
2019-02-11T12:57:55.570Z,9.09
2019-02-11T12:58:55.555Z,9.04
2019-02-11T12:59:55.545Z,8.98
2019-02-11T13:00:55.542Z,8.99
2019-02-11T13:01:55.542Z,9.08
2019-02-11T13:02:55.548Z,9.09
2019-02-11T13:03:55.516Z,9.08
2019-02-11T13:04:55.520Z,9.08
2019-02-11T13:05:55.506Z,9.08
2019-02-11T13:06:55.493Z,9.11
2019-02-11T13:07:55.486Z,9.08
2019-02-11T13:08:55.489Z,9.08
2019-02-11T13:09:55.465Z,8.99
2019-02-11T13:10:55.466Z,8.95
2019-02-11T13:11:55.453Z,8.99
2019-02-11T13:12:55.449Z,9.01
2019-02-11T13:13:55.446Z,9.04
2019-02-11T13:14:55.424Z,9.03
2019-02-11T13:16:00.942Z,8.95
2019-02-11T13:16:55.415Z,8.95
2019-02-11T13:17:55.575Z,8.93